sensor_id;sensor_type;location;lat;lon;timestamp;temperature;humidity
3190;DHT22;1606;51.946;10.558;2023-11-22T00:00:11;8.10;99.90
3190;DHT22;1606;51.946;10.558;2023-11-22T00:02:40;8.10;99.90
3190;DHT22;1606;51.946;10.558;2023-11-22T00:05:08;8.00;99.90
3190;DHT22;1606;51.946;10.558;2023-11-22T00:07:37;7.90;99.90
3190;DHT22;1606;51.946;10.558;2023-11-22T00:10:08;7.70;99.90
3190;DHT22;1606;51.946;10.558;2023-11-22T00:12:36;7.60;99.90
3190;DHT22;1606;51.946;10.558;2023-11-22T00:15:06;7.30;99.90
3190;DHT22;1606;51.946;10.558;2023-11-22T00:17:34;7.20;99.90
3190;DHT22;1606;51.946;10.558;2023-11-22T00:20:04;7.10;99.90
3190;DHT22;1606;51.946;10.558;2023-11-22T00:22:33;6.70;99.90
3190;DHT22;1606;51.946;10.558;2023-11-22T00:25:01;6.50;99.90
3190;DHT22;1606;51.946;10.558;2023-11-22T00:27:30;6.40;99.90
3190;DHT22;1606;51.946;10.558;2023-11-22T00:30:00;6.40;99.90
3190;DHT22;1606;51.946;10.558;2023-11-22T00:32:28;6.50;99.90
3190;DHT22;1606;51.946;10.558;2023-11-22T00:34:56;6.50;99.90
3190;DHT22;1606;51.946;10.558;2023-11-22T00:37:24;6.60;99.90
3190;DHT22;1606;51.946;10.558;2023-11-22T00:39:52;6.70;99.90
3190;DHT22;1606;51.946;10.558;2023-11-22T00:42:19;6.80;99.90
3190;DHT22;1606;51.946;10.558;2023-11-22T00:44:49;6.90;99.90
3190;DHT22;1606;51.946;10.558;2023-11-22T00:47:17;7.10;99.90
3190;DHT22;1606;51.946;10.558;2023-11-22T00:49:45;7.20;99.90
3190;DHT22;1606;51.946;10.558;2023-11-22T00:52:13;6.80;99.90
3190;DHT22;1606;51.946;10.558;2023-11-22T00:54:41;6.70;99.90
3190;DHT22;1606;51.946;10.558;2023-11-22T00:57:09;6.70;99.90
3190;DHT22;1606;51.946;10.558;2023-11-22T00:59:37;6.50;99.90
3190;DHT22;1606;51.946;10.558;2023-11-22T01:02:06;6.60;99.90
3190;DHT22;1606;51.946;10.558;2023-11-22T01:04:35;6.60;99.90
3190;DHT22;1606;51.946;10.558;2023-11-22T01:07:03;6.50;99.90
3190;DHT22;1606;51.946;10.558;2023-11-22T01:09:32;6.50;99.90
3190;DHT22;1606;51.946;10.558;2023-11-22T01:12:00;6.60;99.90
3190;DHT22;1606;51.946;10.558;2023-11-22T01:14:28;6.90;99.90
3190;DHT22;1606;51.946;10.558;2023-11-22T01:16:56;7.10;99.90
3190;DHT22;1606;51.946;10.558;2023-11-22T01:19:25;7.20;99.90
3190;DHT22;1606;51.946;10.558;2023-11-22T01:21:53;7.20;99.90
3190;DHT22;1606;51.946;10.558;2023-11-22T01:24:22;7.20;99.90
3190;DHT22;1606;51.946;10.558;2023-11-22T01:26:50;7.20;99.90
3190;DHT22;1606;51.946;10.558;2023-11-22T01:29:17;7.30;99.90
3190;DHT22;1606;51.946;10.558;2023-11-22T01:31:45;7.30;99.90
3190;DHT22;1606;51.946;10.558;2023-11-22T01:34:15;7.30;99.90
3190;DHT22;1606;51.946;10.558;2023-11-22T01:36:44;7.30;99.90
3190;DHT22;1606;51.946;10.558;2023-11-22T01:39:12;7.30;99.90
3190;DHT22;1606;51.946;10.558;2023-11-22T01:41:44;7.30;99.90
3190;DHT22;1606;51.946;10.558;2023-11-22T01:44:12;7.30;99.90
3190;DHT22;1606;51.946;10.558;2023-11-22T01:46:40;7.30;99.90
3190;DHT22;1606;51.946;10.558;2023-11-22T01:49:09;7.40;99.90
3190;DHT22;1606;51.946;10.558;2023-11-22T01:51:37;7.40;99.90
3190;DHT22;1606;51.946;10.558;2023-11-22T01:54:08;7.40;99.90
3190;DHT22;1606;51.946;10.558;2023-11-22T01:56:37;7.30;99.90
3190;DHT22;1606;51.946;10.558;2023-11-22T01:59:06;7.20;99.90
3190;DHT22;1606;51.946;10.558;2023-11-22T02:01:34;7.10;99.90
3190;DHT22;1606;51.946;10.558;2023-11-22T02:04:04;6.90;99.90
3190;DHT22;1606;51.946;10.558;2023-11-22T02:06:33;7.00;99.90
3190;DHT22;1606;51.946;10.558;2023-11-22T02:09:02;6.90;99.90
3190;DHT22;1606;51.946;10.558;2023-11-22T02:11:31;6.80;99.90
3190;DHT22;1606;51.946;10.558;2023-11-22T02:13:59;6.70;99.90
3190;DHT22;1606;51.946;10.558;2023-11-22T02:16:27;6.60;99.90
3190;DHT22;1606;51.946;10.558;2023-11-22T02:18:55;6.50;99.90
3190;DHT22;1606;51.946;10.558;2023-11-22T02:21:24;6.60;99.90
3190;DHT22;1606;51.946;10.558;2023-11-22T02:23:53;6.30;99.90
3190;DHT22;1606;51.946;10.558;2023-11-22T02:26:21;6.40;99.90
3190;DHT22;1606;51.946;10.558;2023-11-22T02:28:48;6.20;99.90
3190;DHT22;1606;51.946;10.558;2023-11-22T02:31:17;6.00;99.90
3190;DHT22;1606;51.946;10.558;2023-11-22T02:33:46;5.80;99.90
3190;DHT22;1606;51.946;10.558;2023-11-22T02:36:14;5.70;99.90
3190;DHT22;1606;51.946;10.558;2023-11-22T02:38:42;5.70;99.90
3190;DHT22;1606;51.946;10.558;2023-11-22T02:41:13;5.70;99.90
3190;DHT22;1606;51.946;10.558;2023-11-22T02:43:42;5.60;99.90
3190;DHT22;1606;51.946;10.558;2023-11-22T02:46:09;5.60;99.90
3190;DHT22;1606;51.946;10.558;2023-11-22T02:48:37;5.60;99.90
3190;DHT22;1606;51.946;10.558;2023-11-22T02:51:06;5.60;99.90
3190;DHT22;1606;51.946;10.558;2023-11-22T02:53:34;5.50;99.90
3190;DHT22;1606;51.946;10.558;2023-11-22T02:56:02;5.30;99.90
3190;DHT22;1606;51.946;10.558;2023-11-22T02:58:31;5.50;99.90
3190;DHT22;1606;51.946;10.558;2023-11-22T03:00:59;5.50;99.90
3190;DHT22;1606;51.946;10.558;2023-11-22T03:03:27;5.50;99.90
3190;DHT22;1606;51.946;10.558;2023-11-22T03:05:57;5.50;99.90
3190;DHT22;1606;51.946;10.558;2023-11-22T03:08:25;5.60;99.90
3190;DHT22;1606;51.946;10.558;2023-11-22T03:10:54;5.40;99.90
3190;DHT22;1606;51.946;10.558;2023-11-22T03:13:22;5.40;99.90
3190;DHT22;1606;51.946;10.558;2023-11-22T03:15:51;5.50;99.90
3190;DHT22;1606;51.946;10.558;2023-11-22T03:18:18;5.40;99.90
3190;DHT22;1606;51.946;10.558;2023-11-22T03:20:48;5.50;99.90
3190;DHT22;1606;51.946;10.558;2023-11-22T03:23:20;5.60;99.90
3190;DHT22;1606;51.946;10.558;2023-11-22T03:25:48;5.60;99.90
3190;DHT22;1606;51.946;10.558;2023-11-22T03:28:16;5.50;99.90
3190;DHT22;1606;51.946;10.558;2023-11-22T03:30:44;5.60;99.90
3190;DHT22;1606;51.946;10.558;2023-11-22T03:33:13;5.60;99.90
3190;DHT22;1606;51.946;10.558;2023-11-22T03:35:42;5.70;99.90
3190;DHT22;1606;51.946;10.558;2023-11-22T03:38:10;5.50;99.90
3190;DHT22;1606;51.946;10.558;2023-11-22T03:40:38;5.50;99.90
3190;DHT22;1606;51.946;10.558;2023-11-22T03:43:07;5.60;99.90
3190;DHT22;1606;51.946;10.558;2023-11-22T03:45:36;5.60;99.90
3190;DHT22;1606;51.946;10.558;2023-11-22T03:48:05;5.50;99.90
3190;DHT22;1606;51.946;10.558;2023-11-22T03:50:34;5.50;99.90
3190;DHT22;1606;51.946;10.558;2023-11-22T03:53:03;5.60;99.90
3190;DHT22;1606;51.946;10.558;2023-11-22T03:55:30;5.50;99.90
3190;DHT22;1606;51.946;10.558;2023-11-22T03:57:58;5.50;99.90
3190;DHT22;1606;51.946;10.558;2023-11-22T04:00:26;5.50;99.90
3190;DHT22;1606;51.946;10.558;2023-11-22T04:02:54;5.50;99.90
3190;DHT22;1606;51.946;10.558;2023-11-22T04:05:26;5.50;99.90
3190;DHT22;1606;51.946;10.558;2023-11-22T04:07:55;5.50;99.90
3190;DHT22;1606;51.946;10.558;2023-11-22T04:10:23;5.60;99.90
3190;DHT22;1606;51.946;10.558;2023-11-22T04:12:51;5.60;99.90
3190;DHT22;1606;51.946;10.558;2023-11-22T04:15:19;5.50;99.90
3190;DHT22;1606;51.946;10.558;2023-11-22T04:17:47;5.50;99.90
3190;DHT22;1606;51.946;10.558;2023-11-22T04:20:16;5.40;99.90
3190;DHT22;1606;51.946;10.558;2023-11-22T04:22:45;5.30;99.90
3190;DHT22;1606;51.946;10.558;2023-11-22T04:25:14;5.30;99.90
3190;DHT22;1606;51.946;10.558;2023-11-22T04:27:42;5.20;99.90
3190;DHT22;1606;51.946;10.558;2023-11-22T04:30:11;5.10;99.90
3190;DHT22;1606;51.946;10.558;2023-11-22T04:32:40;5.00;99.90
3190;DHT22;1606;51.946;10.558;2023-11-22T04:35:09;4.80;99.90
3190;DHT22;1606;51.946;10.558;2023-11-22T04:37:37;4.80;99.90
3190;DHT22;1606;51.946;10.558;2023-11-22T04:40:07;4.80;99.90
3190;DHT22;1606;51.946;10.558;2023-11-22T04:42:37;4.90;99.90
3190;DHT22;1606;51.946;10.558;2023-11-22T04:45:05;4.70;99.90
3190;DHT22;1606;51.946;10.558;2023-11-22T04:47:34;4.70;99.90
3190;DHT22;1606;51.946;10.558;2023-11-22T04:50:02;4.70;99.90
3190;DHT22;1606;51.946;10.558;2023-11-22T04:52:32;4.60;99.90
3190;DHT22;1606;51.946;10.558;2023-11-22T04:55:00;4.70;99.90
3190;DHT22;1606;51.946;10.558;2023-11-22T04:57:28;4.60;99.90
3190;DHT22;1606;51.946;10.558;2023-11-22T04:59:57;4.60;99.90
3190;DHT22;1606;51.946;10.558;2023-11-22T05:02:27;4.50;99.90
3190;DHT22;1606;51.946;10.558;2023-11-22T05:04:55;4.70;99.90
3190;DHT22;1606;51.946;10.558;2023-11-22T05:07:23;4.70;99.90
3190;DHT22;1606;51.946;10.558;2023-11-22T05:09:51;4.70;99.90
3190;DHT22;1606;51.946;10.558;2023-11-22T05:12:19;4.60;99.90
3190;DHT22;1606;51.946;10.558;2023-11-22T05:14:47;4.60;99.90
3190;DHT22;1606;51.946;10.558;2023-11-22T05:17:16;4.80;99.90
3190;DHT22;1606;51.946;10.558;2023-11-22T05:19:44;4.90;99.90
3190;DHT22;1606;51.946;10.558;2023-11-22T05:22:12;5.00;99.90
3190;DHT22;1606;51.946;10.558;2023-11-22T05:24:40;4.80;99.90
3190;DHT22;1606;51.946;10.558;2023-11-22T05:27:08;4.90;99.90
3190;DHT22;1606;51.946;10.558;2023-11-22T05:29:37;4.90;99.90
3190;DHT22;1606;51.946;10.558;2023-11-22T05:32:17;5.00;99.90
3190;DHT22;1606;51.946;10.558;2023-11-22T05:34:45;5.10;99.90
3190;DHT22;1606;51.946;10.558;2023-11-22T05:37:13;5.10;99.90
3190;DHT22;1606;51.946;10.558;2023-11-22T05:39:41;5.30;99.90
3190;DHT22;1606;51.946;10.558;2023-11-22T05:42:09;5.20;99.90
3190;DHT22;1606;51.946;10.558;2023-11-22T05:44:38;5.10;99.90
3190;DHT22;1606;51.946;10.558;2023-11-22T05:47:06;5.10;99.90
3190;DHT22;1606;51.946;10.558;2023-11-22T05:49:36;5.20;99.90
3190;DHT22;1606;51.946;10.558;2023-11-22T05:52:04;5.20;99.90
3190;DHT22;1606;51.946;10.558;2023-11-22T05:54:32;5.20;99.90
3190;DHT22;1606;51.946;10.558;2023-11-22T05:57:01;5.20;99.90
3190;DHT22;1606;51.946;10.558;2023-11-22T05:59:29;5.10;99.90
3190;DHT22;1606;51.946;10.558;2023-11-22T06:01:57;5.20;99.90
3190;DHT22;1606;51.946;10.558;2023-11-22T06:04:25;5.20;99.90
3190;DHT22;1606;51.946;10.558;2023-11-22T06:06:55;5.10;99.90
3190;DHT22;1606;51.946;10.558;2023-11-22T06:09:23;4.80;99.90
3190;DHT22;1606;51.946;10.558;2023-11-22T06:11:51;4.50;99.90
3190;DHT22;1606;51.946;10.558;2023-11-22T06:14:21;4.60;99.90
3190;DHT22;1606;51.946;10.558;2023-11-22T06:16:49;4.70;99.90
3190;DHT22;1606;51.946;10.558;2023-11-22T06:19:17;4.90;99.90
3190;DHT22;1606;51.946;10.558;2023-11-22T06:21:45;4.90;99.90
3190;DHT22;1606;51.946;10.558;2023-11-22T06:24:15;4.90;99.90
3190;DHT22;1606;51.946;10.558;2023-11-22T06:26:43;4.90;99.90
3190;DHT22;1606;51.946;10.558;2023-11-22T06:29:13;4.90;99.90
3190;DHT22;1606;51.946;10.558;2023-11-22T06:31:42;4.90;99.90
3190;DHT22;1606;51.946;10.558;2023-11-22T06:34:10;5.00;99.90
3190;DHT22;1606;51.946;10.558;2023-11-22T06:36:39;5.00;99.90
3190;DHT22;1606;51.946;10.558;2023-11-22T06:39:07;4.70;99.90
3190;DHT22;1606;51.946;10.558;2023-11-22T06:41:37;4.80;99.90
3190;DHT22;1606;51.946;10.558;2023-11-22T06:44:05;4.70;99.90
3190;DHT22;1606;51.946;10.558;2023-11-22T06:46:33;4.80;99.90
3190;DHT22;1606;51.946;10.558;2023-11-22T06:49:01;4.90;99.90
3190;DHT22;1606;51.946;10.558;2023-11-22T06:51:29;5.00;99.90
3190;DHT22;1606;51.946;10.558;2023-11-22T06:53:58;5.00;99.90
3190;DHT22;1606;51.946;10.558;2023-11-22T06:56:28;4.90;99.90
3190;DHT22;1606;51.946;10.558;2023-11-22T06:58:57;5.00;99.90
3190;DHT22;1606;51.946;10.558;2023-11-22T07:01:25;5.00;99.90
3190;DHT22;1606;51.946;10.558;2023-11-22T07:03:53;5.00;99.90
3190;DHT22;1606;51.946;10.558;2023-11-22T07:06:22;5.00;99.90
3190;DHT22;1606;51.946;10.558;2023-11-22T07:08:50;5.00;99.90
3190;DHT22;1606;51.946;10.558;2023-11-22T07:11:22;4.80;99.90
3190;DHT22;1606;51.946;10.558;2023-11-22T07:13:51;4.80;99.90
3190;DHT22;1606;51.946;10.558;2023-11-22T07:16:21;4.80;99.90
3190;DHT22;1606;51.946;10.558;2023-11-22T07:18:49;4.70;99.90
3190;DHT22;1606;51.946;10.558;2023-11-22T07:21:18;4.70;99.90
3190;DHT22;1606;51.946;10.558;2023-11-22T07:23:47;4.70;99.90
3190;DHT22;1606;51.946;10.558;2023-11-22T07:26:18;4.70;99.90
3190;DHT22;1606;51.946;10.558;2023-11-22T07:28:46;4.60;99.90
3190;DHT22;1606;51.946;10.558;2023-11-22T07:31:17;4.50;99.90
3190;DHT22;1606;51.946;10.558;2023-11-22T07:33:47;4.40;99.90
3190;DHT22;1606;51.946;10.558;2023-11-22T07:36:15;4.40;99.90
3190;DHT22;1606;51.946;10.558;2023-11-22T07:38:43;4.40;99.90
3190;DHT22;1606;51.946;10.558;2023-11-22T07:41:11;4.20;99.90
3190;DHT22;1606;51.946;10.558;2023-11-22T07:43:39;4.20;99.90
3190;DHT22;1606;51.946;10.558;2023-11-22T07:46:08;4.20;99.90
3190;DHT22;1606;51.946;10.558;2023-11-22T07:48:40;4.30;99.90
3190;DHT22;1606;51.946;10.558;2023-11-22T07:51:10;4.50;99.90
3190;DHT22;1606;51.946;10.558;2023-11-22T07:53:38;4.50;99.90
3190;DHT22;1606;51.946;10.558;2023-11-22T07:56:07;4.60;99.90
3190;DHT22;1606;51.946;10.558;2023-11-22T07:58:36;4.80;99.90
3190;DHT22;1606;51.946;10.558;2023-11-22T08:01:05;4.70;99.90
3190;DHT22;1606;51.946;10.558;2023-11-22T08:03:39;4.60;99.90
3190;DHT22;1606;51.946;10.558;2023-11-22T08:06:16;4.60;99.90
3190;DHT22;1606;51.946;10.558;2023-11-22T08:08:44;4.60;99.90
3190;DHT22;1606;51.946;10.558;2023-11-22T08:11:13;4.50;99.90
3190;DHT22;1606;51.946;10.558;2023-11-22T08:13:42;4.40;99.90
3190;DHT22;1606;51.946;10.558;2023-11-22T08:16:12;4.20;99.90
3190;DHT22;1606;51.946;10.558;2023-11-22T08:18:41;4.20;99.90
3190;DHT22;1606;51.946;10.558;2023-11-22T08:21:10;4.10;99.90
3190;DHT22;1606;51.946;10.558;2023-11-22T08:23:40;4.30;99.90
3190;DHT22;1606;51.946;10.558;2023-11-22T08:26:08;4.10;99.90
3190;DHT22;1606;51.946;10.558;2023-11-22T08:28:39;4.10;99.90
3190;DHT22;1606;51.946;10.558;2023-11-22T08:31:07;4.20;99.90
3190;DHT22;1606;51.946;10.558;2023-11-22T08:33:37;4.40;99.90
3190;DHT22;1606;51.946;10.558;2023-11-22T08:36:06;4.20;99.90
3190;DHT22;1606;51.946;10.558;2023-11-22T08:38:34;4.30;99.90
3190;DHT22;1606;51.946;10.558;2023-11-22T08:41:05;4.20;99.90
3190;DHT22;1606;51.946;10.558;2023-11-22T08:43:33;4.30;99.90
3190;DHT22;1606;51.946;10.558;2023-11-22T08:46:03;4.40;99.90
3190;DHT22;1606;51.946;10.558;2023-11-22T08:48:41;4.40;99.90
3190;DHT22;1606;51.946;10.558;2023-11-22T08:51:10;4.50;99.90
3190;DHT22;1606;51.946;10.558;2023-11-22T08:53:39;4.60;99.90
3190;DHT22;1606;51.946;10.558;2023-11-22T08:56:08;4.70;99.90
3190;DHT22;1606;51.946;10.558;2023-11-22T08:58:37;4.80;99.90
3190;DHT22;1606;51.946;10.558;2023-11-22T09:01:07;4.70;99.90
3190;DHT22;1606;51.946;10.558;2023-11-22T09:03:35;4.70;99.90
3190;DHT22;1606;51.946;10.558;2023-11-22T09:06:03;4.60;99.90
3190;DHT22;1606;51.946;10.558;2023-11-22T09:08:34;4.60;99.90
3190;DHT22;1606;51.946;10.558;2023-11-22T09:11:03;4.60;99.90
3190;DHT22;1606;51.946;10.558;2023-11-22T09:13:35;4.60;99.90
3190;DHT22;1606;51.946;10.558;2023-11-22T09:16:03;4.80;99.90
3190;DHT22;1606;51.946;10.558;2023-11-22T09:18:32;4.80;99.90
3190;DHT22;1606;51.946;10.558;2023-11-22T09:21:01;4.80;99.90
3190;DHT22;1606;51.946;10.558;2023-11-22T09:23:29;4.90;99.90
3190;DHT22;1606;51.946;10.558;2023-11-22T09:25:57;4.80;99.90
3190;DHT22;1606;51.946;10.558;2023-11-22T09:28:25;4.70;99.90
3190;DHT22;1606;51.946;10.558;2023-11-22T09:30:55;4.80;99.90
3190;DHT22;1606;51.946;10.558;2023-11-22T09:33:28;4.80;99.90
3190;DHT22;1606;51.946;10.558;2023-11-22T09:35:56;4.80;99.90
3190;DHT22;1606;51.946;10.558;2023-11-22T09:38:25;4.60;99.90
3190;DHT22;1606;51.946;10.558;2023-11-22T09:40:53;4.50;99.90
3190;DHT22;1606;51.946;10.558;2023-11-22T09:43:21;4.70;99.90
3190;DHT22;1606;51.946;10.558;2023-11-22T09:45:52;4.90;99.90
3190;DHT22;1606;51.946;10.558;2023-11-22T09:48:26;4.70;99.90
3190;DHT22;1606;51.946;10.558;2023-11-22T09:51:00;4.50;99.90
3190;DHT22;1606;51.946;10.558;2023-11-22T09:53:31;4.30;99.90
3190;DHT22;1606;51.946;10.558;2023-11-22T09:56:01;4.20;99.90
3190;DHT22;1606;51.946;10.558;2023-11-22T09:58:30;4.40;99.90
3190;DHT22;1606;51.946;10.558;2023-11-22T10:00:59;4.70;99.90
3190;DHT22;1606;51.946;10.558;2023-11-22T10:03:32;4.50;99.90
3190;DHT22;1606;51.946;10.558;2023-11-22T10:06:00;4.70;99.90
3190;DHT22;1606;51.946;10.558;2023-11-22T10:08:31;4.90;99.90
3190;DHT22;1606;51.946;10.558;2023-11-22T10:11:00;5.00;99.90
3190;DHT22;1606;51.946;10.558;2023-11-22T10:13:28;5.10;99.90
3190;DHT22;1606;51.946;10.558;2023-11-22T10:16:09;5.20;99.90
3190;DHT22;1606;51.946;10.558;2023-11-22T10:18:41;5.20;99.90
3190;DHT22;1606;51.946;10.558;2023-11-22T10:21:20;5.00;99.90
3190;DHT22;1606;51.946;10.558;2023-11-22T10:23:48;5.00;99.90
3190;DHT22;1606;51.946;10.558;2023-11-22T10:26:18;5.10;99.90
3190;DHT22;1606;51.946;10.558;2023-11-22T10:28:47;5.00;99.90
3190;DHT22;1606;51.946;10.558;2023-11-22T10:31:18;5.10;99.90
3190;DHT22;1606;51.946;10.558;2023-11-22T10:33:48;5.20;99.90
3190;DHT22;1606;51.946;10.558;2023-11-22T10:36:17;5.20;99.90
3190;DHT22;1606;51.946;10.558;2023-11-22T10:38:47;5.30;99.90
3190;DHT22;1606;51.946;10.558;2023-11-22T10:41:15;5.60;99.90
3190;DHT22;1606;51.946;10.558;2023-11-22T10:43:44;5.60;99.90
3190;DHT22;1606;51.946;10.558;2023-11-22T10:46:13;5.60;99.90
3190;DHT22;1606;51.946;10.558;2023-11-22T10:48:41;5.70;99.90
3190;DHT22;1606;51.946;10.558;2023-11-22T10:51:13;5.60;99.90
3190;DHT22;1606;51.946;10.558;2023-11-22T10:53:45;5.40;99.90
3190;DHT22;1606;51.946;10.558;2023-11-22T10:56:17;5.40;99.90
3190;DHT22;1606;51.946;10.558;2023-11-22T10:58:49;4.90;99.90
3190;DHT22;1606;51.946;10.558;2023-11-22T11:01:19;4.80;99.90
3190;DHT22;1606;51.946;10.558;2023-11-22T11:03:55;5.00;99.90
3190;DHT22;1606;51.946;10.558;2023-11-22T11:06:31;5.30;99.90
3190;DHT22;1606;51.946;10.558;2023-11-22T11:09:01;5.40;99.90
3190;DHT22;1606;51.946;10.558;2023-11-22T11:11:32;5.20;99.90
3190;DHT22;1606;51.946;10.558;2023-11-22T11:14:03;5.20;99.90
3190;DHT22;1606;51.946;10.558;2023-11-22T11:16:35;5.50;99.90
3190;DHT22;1606;51.946;10.558;2023-11-22T11:19:04;5.50;99.90
3190;DHT22;1606;51.946;10.558;2023-11-22T11:21:36;5.50;99.90
3190;DHT22;1606;51.946;10.558;2023-11-22T11:24:04;5.60;99.90
3190;DHT22;1606;51.946;10.558;2023-11-22T11:26:32;5.80;99.90
3190;DHT22;1606;51.946;10.558;2023-11-22T11:29:02;6.10;99.90
3190;DHT22;1606;51.946;10.558;2023-11-22T11:31:32;6.20;99.90
3190;DHT22;1606;51.946;10.558;2023-11-22T11:34:05;6.30;99.90
3190;DHT22;1606;51.946;10.558;2023-11-22T11:36:37;6.30;99.90
3190;DHT22;1606;51.946;10.558;2023-11-22T11:39:06;6.30;99.80
3190;DHT22;1606;51.946;10.558;2023-11-22T11:41:38;6.30;99.90
3190;DHT22;1606;51.946;10.558;2023-11-22T11:44:08;6.40;99.90
3190;DHT22;1606;51.946;10.558;2023-11-22T11:46:37;6.50;99.90
3190;DHT22;1606;51.946;10.558;2023-11-22T11:49:07;6.60;99.90
3190;DHT22;1606;51.946;10.558;2023-11-22T11:51:37;6.70;99.90
3190;DHT22;1606;51.946;10.558;2023-11-22T11:54:05;6.70;99.90
3190;DHT22;1606;51.946;10.558;2023-11-22T11:56:36;6.70;99.90
3190;DHT22;1606;51.946;10.558;2023-11-22T11:59:04;6.90;99.90
3190;DHT22;1606;51.946;10.558;2023-11-22T12:01:33;7.00;99.90
3190;DHT22;1606;51.946;10.558;2023-11-22T12:04:02;7.10;99.40
3190;DHT22;1606;51.946;10.558;2023-11-22T12:06:31;7.20;99.40
3190;DHT22;1606;51.946;10.558;2023-11-22T12:09:04;7.20;99.20
3190;DHT22;1606;51.946;10.558;2023-11-22T12:11:32;7.20;99.30
3190;DHT22;1606;51.946;10.558;2023-11-22T12:14:01;7.20;99.40
3190;DHT22;1606;51.946;10.558;2023-11-22T12:16:30;7.30;98.50
3190;DHT22;1606;51.946;10.558;2023-11-22T12:19:00;7.20;98.90
3190;DHT22;1606;51.946;10.558;2023-11-22T12:21:30;7.20;98.90
3190;DHT22;1606;51.946;10.558;2023-11-22T12:23:59;7.10;98.60
3190;DHT22;1606;51.946;10.558;2023-11-22T12:26:31;7.20;99.00
3190;DHT22;1606;51.946;10.558;2023-11-22T12:29:01;6.90;99.30
3190;DHT22;1606;51.946;10.558;2023-11-22T12:31:32;6.90;99.90
3190;DHT22;1606;51.946;10.558;2023-11-22T12:34:03;7.00;99.90
3190;DHT22;1606;51.946;10.558;2023-11-22T12:36:34;6.80;99.80
3190;DHT22;1606;51.946;10.558;2023-11-22T12:39:05;6.70;99.90
3190;DHT22;1606;51.946;10.558;2023-11-22T12:41:36;6.70;99.90
3190;DHT22;1606;51.946;10.558;2023-11-22T12:44:09;6.70;99.90
3190;DHT22;1606;51.946;10.558;2023-11-22T12:46:47;6.90;99.90
3190;DHT22;1606;51.946;10.558;2023-11-22T12:49:18;7.10;99.80
3190;DHT22;1606;51.946;10.558;2023-11-22T12:51:48;7.20;99.60
3190;DHT22;1606;51.946;10.558;2023-11-22T12:54:16;7.20;99.20
3190;DHT22;1606;51.946;10.558;2023-11-22T12:56:48;7.20;99.50
3190;DHT22;1606;51.946;10.558;2023-11-22T12:59:26;7.10;99.80
3190;DHT22;1606;51.946;10.558;2023-11-22T13:01:57;7.20;99.90
3190;DHT22;1606;51.946;10.558;2023-11-22T13:04:27;7.20;99.80
3190;DHT22;1606;51.946;10.558;2023-11-22T13:06:58;7.00;99.80
3190;DHT22;1606;51.946;10.558;2023-11-22T13:09:27;6.80;99.90
3190;DHT22;1606;51.946;10.558;2023-11-22T13:11:57;7.00;99.90
3190;DHT22;1606;51.946;10.558;2023-11-22T13:14:25;7.00;99.90
3190;DHT22;1606;51.946;10.558;2023-11-22T13:16:59;7.00;99.90
3190;DHT22;1606;51.946;10.558;2023-11-22T13:19:27;7.10;99.90
3190;DHT22;1606;51.946;10.558;2023-11-22T13:21:55;7.10;99.90
3190;DHT22;1606;51.946;10.558;2023-11-22T13:24:23;7.10;99.90
3190;DHT22;1606;51.946;10.558;2023-11-22T13:26:51;6.80;99.90
3190;DHT22;1606;51.946;10.558;2023-11-22T13:29:20;6.60;99.90
3190;DHT22;1606;51.946;10.558;2023-11-22T13:31:48;6.80;99.90
3190;DHT22;1606;51.946;10.558;2023-11-22T13:34:16;6.80;99.90
3190;DHT22;1606;51.946;10.558;2023-11-22T13:36:44;6.80;99.90
3190;DHT22;1606;51.946;10.558;2023-11-22T13:39:12;7.00;99.90
3190;DHT22;1606;51.946;10.558;2023-11-22T13:41:42;7.20;99.90
3190;DHT22;1606;51.946;10.558;2023-11-22T13:44:10;7.10;99.50
3190;DHT22;1606;51.946;10.558;2023-11-22T13:46:39;7.10;99.60
3190;DHT22;1606;51.946;10.558;2023-11-22T13:49:07;7.10;99.80
3190;DHT22;1606;51.946;10.558;2023-11-22T13:51:35;7.10;99.90
3190;DHT22;1606;51.946;10.558;2023-11-22T13:54:03;7.10;99.90
3190;DHT22;1606;51.946;10.558;2023-11-22T13:56:32;7.10;99.80
3190;DHT22;1606;51.946;10.558;2023-11-22T13:59:00;7.10;99.80
3190;DHT22;1606;51.946;10.558;2023-11-22T14:01:28;7.10;99.80
3190;DHT22;1606;51.946;10.558;2023-11-22T14:03:58;7.10;99.90
3190;DHT22;1606;51.946;10.558;2023-11-22T14:06:26;6.80;99.90
3190;DHT22;1606;51.946;10.558;2023-11-22T14:08:55;6.90;99.90
3190;DHT22;1606;51.946;10.558;2023-11-22T14:11:23;6.90;99.90
3190;DHT22;1606;51.946;10.558;2023-11-22T14:13:51;7.10;99.90
3190;DHT22;1606;51.946;10.558;2023-11-22T14:16:19;6.90;99.90
3190;DHT22;1606;51.946;10.558;2023-11-22T14:18:47;6.70;99.90
3190;DHT22;1606;51.946;10.558;2023-11-22T14:21:18;6.80;99.90
3190;DHT22;1606;51.946;10.558;2023-11-22T14:23:46;6.90;99.90
3190;DHT22;1606;51.946;10.558;2023-11-22T14:26:17;6.90;99.90
3190;DHT22;1606;51.946;10.558;2023-11-22T14:28:45;6.90;99.90
3190;DHT22;1606;51.946;10.558;2023-11-22T14:31:14;7.00;99.90
3190;DHT22;1606;51.946;10.558;2023-11-22T14:33:42;6.90;99.90
3190;DHT22;1606;51.946;10.558;2023-11-22T14:36:11;6.90;99.90
3190;DHT22;1606;51.946;10.558;2023-11-22T14:38:42;7.00;99.90
3190;DHT22;1606;51.946;10.558;2023-11-22T14:41:11;7.10;99.90
3190;DHT22;1606;51.946;10.558;2023-11-22T14:43:39;7.00;99.90
3190;DHT22;1606;51.946;10.558;2023-11-22T14:46:07;6.90;99.90
3190;DHT22;1606;51.946;10.558;2023-11-22T14:48:36;6.90;99.90
3190;DHT22;1606;51.946;10.558;2023-11-22T14:51:05;6.90;99.90
3190;DHT22;1606;51.946;10.558;2023-11-22T14:53:36;6.80;99.90
3190;DHT22;1606;51.946;10.558;2023-11-22T14:56:10;6.90;99.90
3190;DHT22;1606;51.946;10.558;2023-11-22T14:58:38;6.90;99.90
3190;DHT22;1606;51.946;10.558;2023-11-22T15:01:12;7.10;99.90
3190;DHT22;1606;51.946;10.558;2023-11-22T15:03:41;7.20;99.90
3190;DHT22;1606;51.946;10.558;2023-11-22T15:06:10;7.30;99.90
3190;DHT22;1606;51.946;10.558;2023-11-22T15:08:38;7.20;99.90
3190;DHT22;1606;51.946;10.558;2023-11-22T15:11:07;7.00;99.90
3190;DHT22;1606;51.946;10.558;2023-11-22T15:13:38;6.80;99.90
3190;DHT22;1606;51.946;10.558;2023-11-22T15:16:07;6.90;99.90
3190;DHT22;1606;51.946;10.558;2023-11-22T15:18:35;6.90;99.90
3190;DHT22;1606;51.946;10.558;2023-11-22T15:21:06;6.90;99.90
3190;DHT22;1606;51.946;10.558;2023-11-22T15:23:35;6.90;99.90
3190;DHT22;1606;51.946;10.558;2023-11-22T15:26:03;6.90;99.90
3190;DHT22;1606;51.946;10.558;2023-11-22T15:28:32;6.90;99.90
3190;DHT22;1606;51.946;10.558;2023-11-22T15:31:03;7.00;99.90
3190;DHT22;1606;51.946;10.558;2023-11-22T15:33:31;6.90;99.90
3190;DHT22;1606;51.946;10.558;2023-11-22T15:36:00;6.90;99.90
3190;DHT22;1606;51.946;10.558;2023-11-22T15:38:29;7.00;99.90
3190;DHT22;1606;51.946;10.558;2023-11-22T15:40:57;6.90;99.90
3190;DHT22;1606;51.946;10.558;2023-11-22T15:43:43;6.80;99.90
3190;DHT22;1606;51.946;10.558;2023-11-22T15:46:11;6.90;99.90
3190;DHT22;1606;51.946;10.558;2023-11-22T15:48:41;6.80;99.90
3190;DHT22;1606;51.946;10.558;2023-11-22T15:51:13;6.70;99.90
3190;DHT22;1606;51.946;10.558;2023-11-22T15:53:43;6.60;99.90
3190;DHT22;1606;51.946;10.558;2023-11-22T15:56:11;6.50;99.90
3190;DHT22;1606;51.946;10.558;2023-11-22T15:58:44;6.60;99.90
3190;DHT22;1606;51.946;10.558;2023-11-22T16:01:12;6.60;99.90
3190;DHT22;1606;51.946;10.558;2023-11-22T16:03:41;6.60;99.90
3190;DHT22;1606;51.946;10.558;2023-11-22T16:06:09;6.70;99.90
3190;DHT22;1606;51.946;10.558;2023-11-22T16:08:38;6.60;99.90
3190;DHT22;1606;51.946;10.558;2023-11-22T16:11:06;6.60;99.90
3190;DHT22;1606;51.946;10.558;2023-11-22T16:13:38;6.60;99.90